createdAt,value
2023-07-02T00:02:34.554Z,17.51
2023-07-02T00:06:41.665Z,17.46
2023-07-02T00:10:45.744Z,17.44
2023-07-02T00:14:48.858Z,17.46
2023-07-02T00:18:53.836Z,17.45
2023-07-02T00:22:57.234Z,17.44
2023-07-02T00:27:00.175Z,17.41
2023-07-02T00:31:03.445Z,17.40
2023-07-02T00:35:08.541Z,17.38
2023-07-02T00:39:12.958Z,17.41
2023-07-02T00:43:15.996Z,17.45
2023-07-02T00:47:18.853Z,17.47
2023-07-02T00:51:24.558Z,17.44
2023-07-02T00:55:27.581Z,17.43
2023-07-02T00:59:31.825Z,17.44
2023-07-02T01:03:38.371Z,17.46
2023-07-02T01:07:42.669Z,17.49
2023-07-02T01:11:48.711Z,17.50
2023-07-02T01:15:52.686Z,17.52
2023-07-02T01:20:00.223Z,17.56
2023-07-02T01:24:03.918Z,17.61
2023-07-02T01:28:07.041Z,17.54
2023-07-02T01:32:10.449Z,17.43
2023-07-02T01:36:14.738Z,17.23
2023-07-02T01:40:17.784Z,17.14
2023-07-02T01:44:21.254Z,17.06
2023-07-02T01:48:24.130Z,16.95
2023-07-02T01:52:28.932Z,16.77
2023-07-02T01:56:31.854Z,16.63
2023-07-02T02:00:34.765Z,16.62
2023-07-02T02:04:38.229Z,16.64
2023-07-02T02:08:42.460Z,16.61
2023-07-02T02:12:47.352Z,16.58
2023-07-02T02:16:51.017Z,16.58
2023-07-02T02:20:53.940Z,16.51
2023-07-02T02:24:58.138Z,16.49
2023-07-02T02:29:01.007Z,16.48
2023-07-02T02:33:03.861Z,16.45
2023-07-02T02:37:07.082Z,16.42
2023-07-02T02:41:11.715Z,16.40
2023-07-02T02:45:19.214Z,16.31
2023-07-02T02:49:27.829Z,16.28
2023-07-02T02:53:30.720Z,16.21
2023-07-02T02:57:36.284Z,16.19
2023-07-02T03:01:44.118Z,16.18
2023-07-02T03:05:49.234Z,16.16
2023-07-02T03:09:52.111Z,16.11
2023-07-02T03:13:56.361Z,16.04
2023-07-02T03:18:00.318Z,16.02
2023-07-02T03:22:03.270Z,16.00
2023-07-02T03:26:06.292Z,15.94
2023-07-02T03:30:11.148Z,15.86
2023-07-02T03:34:14.000Z,15.82
2023-07-02T03:38:16.987Z,15.73
2023-07-02T03:42:20.274Z,15.66
2023-07-02T03:46:24.477Z,15.67
2023-07-02T03:50:28.308Z,15.69
2023-07-02T03:54:31.206Z,15.67
2023-07-02T03:58:34.833Z,15.66
2023-07-02T04:02:39.216Z,15.65
2023-07-02T04:06:42.151Z,15.62
2023-07-02T04:10:45.062Z,15.65
2023-07-02T04:14:47.958Z,15.62
2023-07-02T04:18:52.158Z,15.66
2023-07-02T04:22:55.057Z,15.64
2023-07-02T04:27:38.635Z,15.60
2023-07-02T04:31:21.067Z,15.55
2023-07-02T04:35:25.524Z,15.53
2023-07-02T04:39:28.363Z,15.51
2023-07-02T04:43:31.270Z,15.50
2023-07-02T04:47:35.178Z,15.57
2023-07-02T04:51:41.426Z,15.55
2023-07-02T04:55:45.304Z,15.54
2023-07-02T04:59:48.732Z,15.55
2023-07-02T05:03:51.633Z,15.55
2023-07-02T05:07:56.723Z,15.62
2023-07-02T05:11:59.773Z,15.67
2023-07-02T05:16:02.597Z,15.74
2023-07-02T05:20:06.592Z,15.86
2023-07-02T05:24:11.725Z,15.96
2023-07-02T05:28:14.549Z,15.99
2023-07-02T05:32:17.356Z,16.01
2023-07-02T05:36:20.228Z,16.01
2023-07-02T05:40:24.459Z,16.00
2023-07-02T05:44:27.391Z,16.10
2023-07-02T05:48:30.423Z,16.19
2023-07-02T05:52:33.275Z,16.25
2023-07-02T05:56:37.501Z,16.34
2023-07-02T06:00:42.516Z,16.46
2023-07-02T06:04:45.597Z,16.67
2023-07-02T06:08:48.543Z,16.98
2023-07-02T06:12:53.219Z,17.30
2023-07-02T06:16:58.513Z,17.64
2023-07-02T06:21:01.462Z,17.98
2023-07-02T06:25:05.968Z,18.42
2023-07-02T06:29:10.316Z,18.74
2023-07-02T06:33:13.165Z,18.94
2023-07-02T06:37:16.005Z,18.92
2023-07-02T06:41:20.821Z,19.14
2023-07-02T06:45:26.961Z,19.27
2023-07-02T06:49:29.802Z,19.53
2023-07-02T06:53:32.850Z,19.55
2023-07-02T06:57:35.752Z,19.65
2023-07-02T07:01:39.936Z,19.74
2023-07-02T07:05:43.048Z,19.94
2023-07-02T07:09:45.903Z,19.93
2023-07-02T07:13:48.684Z,20.13
2023-07-02T07:17:52.908Z,20.47
2023-07-02T07:21:55.793Z,20.70
2023-07-02T07:25:59.013Z,20.66
2023-07-02T07:30:02.128Z,20.47
2023-07-02T07:34:06.296Z,20.48
2023-07-02T07:38:09.280Z,20.68
2023-07-02T07:42:12.110Z,20.50
2023-07-02T07:46:15.047Z,20.54
2023-07-02T07:50:19.489Z,20.72
2023-07-02T07:54:22.287Z,20.69
2023-07-02T07:58:25.814Z,21.00
2023-07-02T08:02:28.707Z,21.23
2023-07-02T08:06:32.937Z,21.07
2023-07-02T08:10:35.800Z,21.19
2023-07-02T08:14:38.918Z,21.05
2023-07-02T08:18:41.918Z,21.46
2023-07-02T08:22:46.352Z,21.47
2023-07-02T08:26:50.574Z,21.47
2023-07-02T08:30:53.423Z,21.77
2023-07-02T08:34:56.900Z,21.48
2023-07-02T08:39:01.079Z,21.56
2023-07-02T08:43:04.110Z,21.24
2023-07-02T08:47:08.207Z,21.06
2023-07-02T08:51:11.062Z,21.29
2023-07-02T08:55:15.364Z,21.70
2023-07-02T08:59:18.350Z,21.75
2023-07-02T09:03:21.213Z,21.62
2023-07-02T09:07:24.216Z,21.42
2023-07-02T09:11:28.878Z,21.63
2023-07-02T09:15:38.270Z,21.67
2023-07-02T09:19:52.029Z,21.39
2023-07-02T09:23:55.286Z,21.17
2023-07-02T09:27:59.590Z,20.88
2023-07-02T09:32:10.089Z,20.61
2023-07-02T09:36:14.828Z,20.68
2023-07-02T09:40:19.196Z,20.61
2023-07-02T09:44:24.474Z,20.45
2023-07-02T09:48:30.024Z,20.83
2023-07-02T09:52:33.245Z,21.22
2023-07-02T09:56:36.241Z,21.75
2023-07-02T10:00:41.808Z,21.90
2023-07-02T10:04:46.391Z,22.14
2023-07-02T10:08:56.669Z,22.31
2023-07-02T10:13:00.224Z,22.01
2023-07-02T10:17:04.775Z,22.23
2023-07-02T10:21:17.797Z,22.57
2023-07-02T10:25:27.149Z,22.72
2023-07-02T10:29:31.274Z,22.69
2023-07-02T10:33:35.440Z,22.55
2023-07-02T10:37:38.990Z,22.76
2023-07-02T10:41:42.102Z,23.15
2023-07-02T10:45:45.409Z,23.33
2023-07-02T10:49:49.678Z,23.22
2023-07-02T10:53:59.891Z,23.44
2023-07-02T10:58:07.978Z,23.07
2023-07-02T11:02:11.274Z,22.97
2023-07-02T11:06:15.662Z,23.32
2023-07-02T11:10:22.405Z,23.66
2023-07-02T11:14:29.562Z,23.75
2023-07-02T11:18:33.241Z,23.38
2023-07-02T11:22:39.504Z,23.25
2023-07-02T11:26:44.411Z,22.57
2023-07-02T11:30:47.718Z,22.33
2023-07-02T11:34:56.029Z,22.56
2023-07-02T11:39:00.224Z,22.99
2023-07-02T11:43:03.085Z,23.28
2023-07-02T11:47:06.614Z,23.21
2023-07-02T11:51:09.481Z,23.12
2023-07-02T11:55:14.053Z,23.34
2023-07-02T11:59:16.886Z,23.76
2023-07-02T12:03:20.088Z,23.97
2023-07-02T12:07:22.885Z,23.68
2023-07-02T12:11:27.254Z,23.96
2023-07-02T12:15:30.100Z,24.23
2023-07-02T12:19:32.930Z,24.40
2023-07-02T12:23:35.742Z,24.35
2023-07-02T12:27:39.918Z,24.46
2023-07-02T12:31:42.746Z,24.84
2023-07-02T12:35:45.588Z,24.88
2023-07-02T12:39:48.460Z,25.15
2023-07-02T12:43:55.855Z,25.02
2023-07-02T12:47:58.708Z,25.04
2023-07-02T12:52:01.751Z,24.86
2023-07-02T12:56:05.001Z,24.53
2023-07-02T13:00:10.786Z,24.20
2023-07-02T13:04:15.867Z,24.20
2023-07-02T13:08:19.310Z,24.25
2023-07-02T13:12:22.149Z,24.08
2023-07-02T13:16:26.436Z,23.82
2023-07-02T13:20:29.434Z,23.64
2023-07-02T13:24:36.305Z,23.80
2023-07-02T13:28:39.158Z,24.02
2023-07-02T13:32:43.344Z,24.06
2023-07-02T13:36:46.165Z,24.24
2023-07-02T13:40:49.071Z,24.30
2023-07-02T13:44:52.010Z,23.96
2023-07-02T13:48:56.301Z,23.68
2023-07-02T13:52:59.188Z,23.62
2023-07-02T13:57:02.082Z,23.78
2023-07-02T14:01:06.917Z,24.02
2023-07-02T14:05:10.469Z,23.62
2023-07-02T14:09:13.808Z,23.52
2023-07-02T14:13:16.795Z,23.38
2023-07-02T14:17:21.412Z,23.08
2023-07-02T14:21:24.437Z,22.86
2023-07-02T14:25:40.747Z,23.05
2023-07-02T14:29:44.852Z,23.44
2023-07-02T14:33:49.233Z,23.49
2023-07-02T14:37:52.158Z,23.36
2023-07-02T14:41:55.019Z,22.97
2023-07-02T14:46:00.329Z,23.06
2023-07-02T14:50:04.775Z,23.20
2023-07-02T14:54:07.586Z,23.15
2023-07-02T14:58:11.611Z,23.30
2023-07-02T15:02:14.673Z,23.21
2023-07-02T15:06:20.387Z,23.36
2023-07-02T15:10:23.263Z,23.24
2023-07-02T15:14:26.278Z,23.15
2023-07-02T15:18:29.543Z,23.09
2023-07-02T15:22:33.748Z,23.28
2023-07-02T15:26:36.949Z,23.55
2023-07-02T15:30:40.957Z,23.28
2023-07-02T15:34:43.737Z,23.07
2023-07-02T15:38:48.032Z,22.91
2023-07-02T15:42:53.607Z,22.83
2023-07-02T15:46:57.529Z,23.12
2023-07-02T15:51:00.466Z,22.94
2023-07-02T15:55:04.750Z,22.74
2023-07-02T15:59:07.606Z,22.68
2023-07-02T16:03:10.421Z,22.72
2023-07-02T16:07:14.129Z,22.74
2023-07-02T16:11:18.271Z,22.78
2023-07-02T16:15:21.753Z,22.75
2023-07-02T16:19:25.216Z,22.69
2023-07-02T16:23:28.160Z,22.42
2023-07-02T16:27:32.372Z,22.22
2023-07-02T16:31:35.991Z,22.12
2023-07-02T16:35:38.955Z,22.01
2023-07-02T16:39:41.796Z,21.88
2023-07-02T16:43:45.931Z,21.72
2023-07-02T16:47:48.846Z,21.64
2023-07-02T16:51:52.352Z,21.47
2023-07-02T16:55:58.475Z,21.48
2023-07-02T17:00:02.771Z,21.60
2023-07-02T17:04:05.921Z,21.53
2023-07-02T17:08:08.945Z,21.39
2023-07-02T17:12:14.690Z,21.15
2023-07-02T17:16:18.979Z,20.98
2023-07-02T17:20:21.825Z,20.88
2023-07-02T17:24:26.767Z,20.94
2023-07-02T17:28:30.682Z,20.94
2023-07-02T17:32:35.773Z,20.89
2023-07-02T17:36:38.632Z,20.75
2023-07-02T17:40:42.014Z,20.68
2023-07-02T17:44:46.393Z,20.61
2023-07-02T17:48:50.575Z,20.65
2023-07-02T17:52:53.507Z,20.66
2023-07-02T17:56:56.889Z,20.64
2023-07-02T18:00:59.833Z,20.59
2023-07-02T18:05:04.295Z,20.52
2023-07-02T18:09:07.400Z,20.47
2023-07-02T18:13:10.692Z,20.37
2023-07-02T18:17:13.781Z,20.29
2023-07-02T18:21:18.159Z,20.25
2023-07-02T18:25:21.344Z,20.37
2023-07-02T18:29:24.231Z,20.47
2023-07-02T18:33:27.826Z,20.44
2023-07-02T18:37:32.017Z,20.28
2023-07-02T18:41:34.859Z,20.31
2023-07-02T18:45:37.680Z,20.32
2023-07-02T18:49:41.375Z,20.29
2023-07-02T18:53:45.580Z,20.27
2023-07-02T18:57:48.481Z,20.23
2023-07-02T19:01:51.764Z,20.20
2023-07-02T19:05:54.642Z,20.18
2023-07-02T19:09:59.917Z,20.18
2023-07-02T19:14:03.325Z,20.17
2023-07-02T19:18:08.056Z,20.13
2023-07-02T19:22:11.996Z,20.14
2023-07-02T19:26:16.151Z,20.15
2023-07-02T19:30:19.438Z,20.06
2023-07-02T19:34:22.454Z,20.02
2023-07-02T19:38:25.864Z,19.97
2023-07-02T19:42:31.573Z,20.00
2023-07-02T19:46:34.760Z,19.99
2023-07-02T19:50:37.678Z,19.93
2023-07-02T19:54:42.154Z,19.83
2023-07-02T19:58:47.026Z,19.82
2023-07-02T20:02:49.983Z,19.75
2023-07-02T20:06:53.068Z,19.64
2023-07-02T20:10:56.080Z,19.57
